createdAt,value
2018-12-29T00:02:22.084Z,5.25
2018-12-29T00:07:26.218Z,3.00
2018-12-29T00:12:30.306Z,3.80
2018-12-29T00:17:34.376Z,4.80
2018-12-29T00:22:38.616Z,5.60
2018-12-29T00:27:42.771Z,4.00
2018-12-29T00:32:46.937Z,3.25
2018-12-29T00:37:50.971Z,4.00
2018-12-29T00:42:55.054Z,3.00
2018-12-29T00:47:59.139Z,5.00
2018-12-29T00:53:03.175Z,3.60
2018-12-29T00:58:07.439Z,4.00
2018-12-29T01:03:11.617Z,4.00
2018-12-29T01:08:15.751Z,3.00
2018-12-29T01:13:20.018Z,4.00
2018-12-29T01:18:24.093Z,4.40
2018-12-29T01:23:28.227Z,3.00
2018-12-29T01:28:32.343Z,3.20
2018-12-29T01:33:36.393Z,5.00
2018-12-29T01:38:40.459Z,2.00
2018-12-29T01:43:44.582Z,3.25
2018-12-29T01:48:48.661Z,2.40
2018-12-29T01:53:52.798Z,2.75
2018-12-29T01:58:56.824Z,3.25
2018-12-29T02:04:00.869Z,3.00
2018-12-29T02:09:05.737Z,1.50
2018-12-29T02:14:09.773Z,3.00
2018-12-29T02:19:13.952Z,5.50
2018-12-29T02:24:17.993Z,2.00
2018-12-29T02:29:22.213Z,3.00
2018-12-29T02:34:26.415Z,4.50
2018-12-29T02:39:30.593Z,4.00
2018-12-29T02:44:34.870Z,3.00
2018-12-29T02:49:39.032Z,3.25
2018-12-29T02:54:43.052Z,3.00
2018-12-29T02:59:47.264Z,5.00
2018-12-29T03:04:51.447Z,3.40
2018-12-29T03:09:55.697Z,4.20
2018-12-29T03:14:59.729Z,3.00
2018-12-29T03:20:04.047Z,3.25
2018-12-29T03:25:08.205Z,3.00
2018-12-29T03:30:12.333Z,3.75
2018-12-29T03:35:16.487Z,6.00
2018-12-29T03:40:20.650Z,2.00
2018-12-29T03:45:24.785Z,4.00
2018-12-29T03:50:29.114Z,3.20
2018-12-29T03:55:33.183Z,3.80
2018-12-29T04:00:37.348Z,2.00
2018-12-29T04:05:41.372Z,2.25
2018-12-29T04:10:45.497Z,3.75
2018-12-29T04:15:57.644Z,3.00
2018-12-29T04:20:55.452Z,2.00
2018-12-29T04:25:59.515Z,3.00
2018-12-29T04:31:03.526Z,2.00
2018-12-29T04:36:07.576Z,4.00
2018-12-29T04:41:11.589Z,3.25
2018-12-29T04:46:15.607Z,4.50
2018-12-29T04:51:19.631Z,3.50
2018-12-29T04:56:23.766Z,5.75
2018-12-29T05:01:27.811Z,2.20
2018-12-29T05:06:32.067Z,2.00
2018-12-29T05:11:36.105Z,2.40
2018-12-29T05:16:40.142Z,3.20
2018-12-29T05:21:44.270Z,3.60
2018-12-29T05:26:48.294Z,3.00
2018-12-29T05:31:52.524Z,3.50
2018-12-29T05:36:56.680Z,2.25
2018-12-29T05:42:00.697Z,1.50
2018-12-29T05:47:04.720Z,3.50
2018-12-29T05:52:08.764Z,2.00
2018-12-29T05:57:12.918Z,1.00
2018-12-29T06:02:16.994Z,3.60
2018-12-29T06:07:21.026Z,1.00
2018-12-29T06:12:25.093Z,3.00
2018-12-29T06:17:29.124Z,2.60
2018-12-29T06:22:33.171Z,2.00
2018-12-29T06:27:37.340Z,1.60
2018-12-29T06:32:41.388Z,1.40
2018-12-29T06:37:45.416Z,2.00
2018-12-29T06:42:49.458Z,3.20
2018-12-29T06:47:53.559Z,2.60
2018-12-29T06:52:57.567Z,1.75
2018-12-29T06:58:01.576Z,1.50
2018-12-29T07:03:05.678Z,2.60
2018-12-29T07:08:09.704Z,1.25
2018-12-29T07:13:13.924Z,2.00
2018-12-29T07:18:17.939Z,2.25
2018-12-29T07:23:22.015Z,1.00
2018-12-29T07:28:26.116Z,2.00
2018-12-29T07:33:30.248Z,2.40
2018-12-29T07:38:34.298Z,3.00
2018-12-29T07:43:38.398Z,1.80
2018-12-29T07:48:46.931Z,1.60
2018-12-29T07:53:52.227Z,2.00
2018-12-29T07:58:56.518Z,2.00
2018-12-29T08:04:05.407Z,1.20
2018-12-29T08:09:09.523Z,2.60
2018-12-29T08:14:13.571Z,1.20
2018-12-29T08:19:17.587Z,2.00
2018-12-29T08:24:24.793Z,3.00
2018-12-29T08:29:30.786Z,2.25
2018-12-29T08:34:37.260Z,3.25
2018-12-29T08:39:41.274Z,2.80
2018-12-29T08:44:45.336Z,22.40
2018-12-29T08:49:49.670Z,17.60
2018-12-29T08:54:53.690Z,13.00
2018-12-29T08:59:57.712Z,10.75
2018-12-29T09:05:01.778Z,10.75
2018-12-29T09:10:06.405Z,9.40
2018-12-29T09:15:10.491Z,7.40
2018-12-29T09:20:14.535Z,9.80
2018-12-29T09:25:18.596Z,10.00
2018-12-29T09:30:22.717Z,8.00
2018-12-29T09:35:26.747Z,8.00
2018-12-29T09:40:30.842Z,8.00
2018-12-29T09:45:34.974Z,6.60
2018-12-29T09:50:39.007Z,6.80
2018-12-29T09:55:43.111Z,5.20
2018-12-29T10:00:47.136Z,6.25
2018-12-29T10:05:51.171Z,7.80
2018-12-29T10:10:55.303Z,5.80
2018-12-29T10:15:59.437Z,5.80
2018-12-29T10:21:03.535Z,6.75
2018-12-29T10:26:07.564Z,6.60
2018-12-29T10:31:11.607Z,6.75
2018-12-29T10:36:15.731Z,7.50
2018-12-29T10:41:19.765Z,8.25
2018-12-29T10:46:23.829Z,6.60
2018-12-29T10:51:27.867Z,5.50
2018-12-29T10:56:31.948Z,7.00
2018-12-29T11:01:35.977Z,6.80
2018-12-29T11:06:40.025Z,8.00
2018-12-29T11:11:44.094Z,6.00
2018-12-29T11:16:49.431Z,4.80
2018-12-29T11:21:53.462Z,4.00
2018-12-29T11:26:57.538Z,4.00
2018-12-29T11:32:01.570Z,4.50
2018-12-29T11:37:05.593Z,8.00
2018-12-29T11:42:09.630Z,6.00
2018-12-29T11:47:13.663Z,6.00
2018-12-29T11:52:17.737Z,5.00
2018-12-29T11:57:21.754Z,7.00
2018-12-29T12:02:25.766Z,6.75
2018-12-29T12:07:29.795Z,4.75
2018-12-29T12:12:33.823Z,6.80
2018-12-29T12:17:37.852Z,5.75
2018-12-29T12:22:41.973Z,5.60
2018-12-29T12:27:45.998Z,4.60
2018-12-29T12:32:50.133Z,7.80
2018-12-29T12:37:54.160Z,4.00
2018-12-29T12:42:58.174Z,4.80
2018-12-29T12:48:05.121Z,3.40
2018-12-29T12:53:07.980Z,6.25
2018-12-29T12:58:12.271Z,6.00
2018-12-29T13:03:18.402Z,5.00
2018-12-29T13:08:22.967Z,4.80
2018-12-29T13:13:27.000Z,5.50
2018-12-29T13:18:31.302Z,3.40
2018-12-29T13:23:35.336Z,6.40
2018-12-29T13:28:39.846Z,7.50
2018-12-29T13:33:43.870Z,4.40
2018-12-29T13:38:48.269Z,4.75
2018-12-29T13:43:52.301Z,6.00
2018-12-29T13:48:56.724Z,5.25
2018-12-29T13:54:00.762Z,4.00
2018-12-29T13:59:05.158Z,4.00
2018-12-29T14:04:09.195Z,3.00
2018-12-29T14:09:13.220Z,3.00
2018-12-29T14:14:17.320Z,4.00
2018-12-29T14:19:21.327Z,4.60
2018-12-29T14:24:25.433Z,5.60
2018-12-29T14:29:29.454Z,7.00
2018-12-29T14:34:34.977Z,5.00
2018-12-29T14:39:39.035Z,3.25
2018-12-29T14:44:43.287Z,3.40
2018-12-29T14:49:47.289Z,5.20
2018-12-29T14:54:51.395Z,3.00
2018-12-29T14:59:55.443Z,4.00
2018-12-29T15:04:59.466Z,4.00
2018-12-29T15:10:03.504Z,2.75
2018-12-29T15:15:07.682Z,3.20
2018-12-29T15:20:11.712Z,3.60
2018-12-29T15:25:15.746Z,3.00
2018-12-29T15:30:20.039Z,4.20
2018-12-29T15:35:24.054Z,3.00
2018-12-29T15:40:28.550Z,3.00
2018-12-29T15:45:32.631Z,6.25
2018-12-29T15:51:39.087Z,3.50
2018-12-29T15:55:42.964Z,4.25
2018-12-29T16:00:54.777Z,4.25
2018-12-29T16:05:58.953Z,3.40
2018-12-29T16:11:03.469Z,3.60
2018-12-29T16:16:07.500Z,2.20
2018-12-29T16:21:11.593Z,3.50
2018-12-29T16:26:15.625Z,4.00
2018-12-29T16:31:21.319Z,2.40
2018-12-29T16:36:25.345Z,3.25
2018-12-29T16:41:29.373Z,3.40
2018-12-29T16:46:33.863Z,3.00
2018-12-29T16:51:37.896Z,2.00
2018-12-29T16:56:42.035Z,2.80
2018-12-29T17:01:46.109Z,4.60
2018-12-29T17:07:33.722Z,4.40
2018-12-29T17:12:37.741Z,3.00
2018-12-29T17:17:42.168Z,3.00
2018-12-29T17:22:46.273Z,2.50
2018-12-29T17:27:50.304Z,3.60
2018-12-29T17:32:54.395Z,3.00
2018-12-29T17:37:58.833Z,4.50
2018-12-29T17:43:02.869Z,3.00
2018-12-29T17:48:06.986Z,3.25
2018-12-29T17:53:11.362Z,3.00
2018-12-29T17:58:15.436Z,3.50
2018-12-29T18:03:19.506Z,3.00
2018-12-29T18:08:23.977Z,4.00
2018-12-29T18:13:28.117Z,4.40
2018-12-29T18:18:32.357Z,7.67
2018-12-29T18:23:36.466Z,3.00
2018-12-29T18:28:40.514Z,3.80
2018-12-29T18:33:46.064Z,4.00
2018-12-29T18:38:50.122Z,4.60
2018-12-29T18:43:54.537Z,6.20
2018-12-29T18:48:58.636Z,5.25
2018-12-29T18:54:02.691Z,5.75
2018-12-29T18:59:07.112Z,6.75
2018-12-29T19:04:11.124Z,4.00
2018-12-29T19:09:15.267Z,5.80
2018-12-29T19:14:19.296Z,4.00
2018-12-29T19:19:23.321Z,5.50
2018-12-29T19:24:27.427Z,6.20
2018-12-29T19:29:31.961Z,3.80
2018-12-29T19:34:36.174Z,5.75
2018-12-29T19:39:40.649Z,3.75
2018-12-29T19:44:44.780Z,3.50
2018-12-29T19:49:53.534Z,4.60
2018-12-29T19:54:55.043Z,7.80
2018-12-29T20:00:26.113Z,6.40
2018-12-29T20:06:00.127Z,4.75
2018-12-29T20:11:04.399Z,5.00
2018-12-29T20:16:08.430Z,3.25
2018-12-29T20:21:12.550Z,5.00
2018-12-29T20:26:26.437Z,3.50
2018-12-29T20:31:30.807Z,5.60
2018-12-29T20:36:34.894Z,5.80
2018-12-29T20:41:39.434Z,2.40
2018-12-29T20:46:43.554Z,3.80
2018-12-29T20:51:47.620Z,4.00
2018-12-29T20:56:51.774Z,4.00
2018-12-29T21:01:55.851Z,4.00
2018-12-29T21:06:59.971Z,3.00
2018-12-29T21:12:04.144Z,3.60
2018-12-29T21:17:08.327Z,3.00
2018-12-29T21:22:12.345Z,3.40
2018-12-29T21:27:16.376Z,3.50
2018-12-29T21:32:20.508Z,4.75
2018-12-29T21:37:24.539Z,4.20
2018-12-29T21:42:28.670Z,2.50
2018-12-29T21:47:32.979Z,4.75
2018-12-29T21:52:37.013Z,3.40
2018-12-29T21:57:41.193Z,5.00
2018-12-29T22:02:45.223Z,2.00
2018-12-29T22:07:49.370Z,3.80
2018-12-29T22:12:53.414Z,3.60
2018-12-29T22:17:57.513Z,4.20
2018-12-29T22:23:01.536Z,4.00
2018-12-29T22:28:05.565Z,2.75
2018-12-29T22:33:09.638Z,8.25
2018-12-29T22:38:13.647Z,2.75
2018-12-29T22:43:17.902Z,4.00
2018-12-29T22:48:22.018Z,2.80
2018-12-29T22:53:26.435Z,2.00
2018-12-29T22:58:30.458Z,4.25
2018-12-29T23:03:34.940Z,1.60
2018-12-29T23:08:38.976Z,3.00
2018-12-29T23:13:43.595Z,2.20
2018-12-29T23:18:47.722Z,3.00
2018-12-29T23:23:51.820Z,2.25
2018-12-29T23:28:55.966Z,2.75
2018-12-29T23:34:00.100Z,3.20
2018-12-29T23:39:05.495Z,1.80
2018-12-29T23:44:09.649Z,0.50
2018-12-29T23:49:13.890Z,3.25
2018-12-29T23:54:18.471Z,3.00
2018-12-29T23:59:23.034Z,1.25
